Time;durP1;ratioP1;P1;durP2;ratioP2;P2;SDS_P1;SDS_P2;PMS_P1;PMS_P2;Temp;Humidity;BMP_temperature;BMP_pressure;BME280_temperature;BME280_humidity;BME280_pressure;Samples;Min_cycle;Max_cycle;Signal;HPM_P1;HPM_P2
2021/05/04 00:01:04;;;;;;;3.63;2.97;;;12.40;99.90;;;;;;5001139;28;20174;-71
2021/05/04 00:03:30;;;;;;;5.73;2.90;;;12.50;99.90;;;;;;5017331;28;20182;-72
2021/05/04 00:05:56;;;;;;;3.00;2.60;;;12.60;99.90;;;;;;5017263;28;20177;-72
2021/05/04 00:08:21;;;;;;;5.03;2.83;;;12.60;99.90;;;;;;5034698;28;20617;-72
2021/05/04 00:10:47;;;;;;;4.97;2.80;;;12.60;99.90;;;;;;5034921;28;20205;-72
2021/05/04 00:13:12;;;;;;;3.07;2.50;;;12.60;99.90;;;;;;5017284;28;20590;-72
2021/05/04 00:15:38;;;;;;;4.90;2.60;;;12.60;99.90;;;;;;5017138;28;20551;-72
2021/05/04 00:18:03;;;;;;;4.13;2.43;;;12.70;99.90;;;;;;5000689;28;20681;-72
2021/05/04 00:20:29;;;;;;;3.50;2.37;;;12.70;99.90;;;;;;5000534;28;20657;-72
2021/05/04 00:22:55;;;;;;;5.00;2.60;;;12.80;99.80;;;;;;5017019;28;20535;-72
2021/05/04 00:25:20;;;;;;;6.00;2.50;;;12.80;99.70;;;;;;5034612;28;20609;-72
2021/05/04 00:27:46;;;;;;;3.87;2.53;;;12.90;99.90;;;;;;5016731;28;20708;-72
2021/05/04 00:30:12;;;;;;;4.60;2.43;;;12.90;99.40;;;;;;5034799;28;20174;-72
2021/05/04 00:32:37;;;;;;;3.77;2.50;;;12.90;98.80;;;;;;5000430;28;20178;-72
2021/05/04 00:35:03;;;;;;;7.13;2.37;;;13.00;99.00;;;;;;5000447;28;20181;-72
2021/05/04 00:37:29;;;;;;;3.27;2.50;;;13.00;99.10;;;;;;5033997;28;20802;-72
2021/05/04 00:39:54;;;;;;;4.50;2.47;;;13.00;98.80;;;;;;5016711;28;20202;-72
2021/05/04 00:42:23;;;;;;;6.03;2.33;;;13.00;98.20;;;;;;5034182;28;20174;-71
2021/05/04 00:44:49;;;;;;;2.50;2.03;;;13.00;98.50;;;;;;5034241;28;20198;-71
2021/05/04 00:47:14;;;;;;;5.77;2.30;;;13.00;97.90;;;;;;5016438;28;20541;-71
2021/05/04 00:49:40;;;;;;;3.63;2.40;;;13.10;98.20;;;;;;5034049;28;20217;-71
2021/05/04 00:52:06;;;;;;;6.13;2.30;;;13.00;98.00;;;;;;5033148;28;20178;-71
2021/05/04 00:54:31;;;;;;;4.03;2.10;;;13.00;98.00;;;;;;5016504;28;20185;-72
2021/05/04 00:56:57;;;;;;;5.20;2.43;;;13.00;98.20;;;;;;5000068;28;20259;-72
2021/05/04 00:59:23;;;;;;;3.80;2.13;;;13.00;98.40;;;;;;5000039;28;20228;-72
2021/05/04 01:01:51;;;;;;;4.47;2.37;;;13.00;98.70;;;;;;5000277;28;20637;-72
2021/05/04 01:04:16;;;;;;;5.27;2.20;;;13.00;97.80;;;;;;4999968;28;20205;-72
2021/05/04 01:06:42;;;;;;;3.00;1.83;;;13.00;98.20;;;;;;4999760;28;20549;-72
2021/05/04 01:09:07;;;;;;;3.97;1.73;;;12.90;98.50;;;;;;5016209;28;20829;-71
2021/05/04 01:11:33;;;;;;;5.03;2.20;;;13.00;98.00;;;;;;5016214;28;20178;-71
2021/05/04 01:13:59;;;;;;;6.13;2.30;;;13.00;97.40;;;;;;5016064;28;20179;-72
2021/05/04 01:16:24;;;;;;;5.67;2.13;;;13.00;97.40;;;;;;4999766;28;20181;-72
2021/05/04 01:18:50;;;;;;;7.27;1.87;;;13.00;97.70;;;;;;5033315;28;20213;-72
2021/05/04 01:21:15;;;;;;;4.70;2.00;;;13.00;97.60;;;;;;4999775;28;20178;-72
2021/05/04 01:23:41;;;;;;;3.37;2.30;;;13.00;97.80;;;;;;4999358;28;20206;-72
2021/05/04 01:26:06;;;;;;;1.80;1.60;;;13.00;97.60;;;;;;5015966;28;20515;-72
2021/05/04 01:28:32;;;;;;;4.70;2.10;;;13.00;97.10;;;;;;4999130;28;20572;-72
2021/05/04 01:30:58;;;;;;;2.63;1.90;;;13.00;97.40;;;;;;5015805;28;20672;-71
2021/05/04 01:33:23;;;;;;;2.57;1.83;;;13.00;97.20;;;;;;5033312;28;20253;-71
2021/05/04 01:39:11;;;;;;;5.53;1.83;;;13.00;97.60;;;;;;5033458;28;20201;-71
2021/05/04 01:41:37;;;;;;;4.73;2.00;;;12.90;97.80;;;;;;4998712;28;20178;-71
2021/05/04 01:44:04;;;;;;;5.20;2.20;;;13.00;97.90;;;;;;4999130;28;20666;-72
2021/05/04 01:46:32;;;;;;;5.17;1.80;;;13.00;97.40;;;;;;4998915;28;20179;-72
2021/05/04 01:49:05;;;;;;;3.57;1.90;;;13.00;97.50;;;;;;5015715;28;20583;-71
2021/05/04 01:51:31;;;;;;;6.57;1.83;;;13.00;97.40;;;;;;4983249;28;20167;-72
2021/05/04 01:53:56;;;;;;;3.23;1.73;;;13.00;97.40;;;;;;4982900;28;20679;-72
2021/05/04 01:56:22;;;;;;;3.07;2.00;;;13.00;97.40;;;;;;4998834;28;20224;-72
2021/05/04 01:58:48;;;;;;;3.23;1.60;;;13.10;97.30;;;;;;5015163;28;20574;-72
2021/05/04 02:01:14;;;;;;;3.63;1.87;;;13.10;97.20;;;;;;5015060;28;20186;-72
2021/05/04 02:03:40;;;;;;;4.37;1.93;;;13.10;98.00;;;;;;5014873;28;20669;-72
2021/05/04 02:06:05;;;;;;;2.53;2.03;;;13.00;97.90;;;;;;4998888;28;20221;-72
2021/05/04 02:08:31;;;;;;;4.30;1.60;;;13.00;97.30;;;;;;5032533;28;20205;-71
2021/05/04 02:10:56;;;;;;;2.67;1.80;;;13.00;98.70;;;;;;5015046;28;20545;-71
2021/05/04 02:13:23;;;;;;;4.77;1.60;;;12.80;99.70;;;;;;4998522;28;20182;-71
2021/05/04 02:15:49;;;;;;;2.27;1.53;;;12.70;99.90;;;;;;5015299;28;20193;-72
2021/05/04 02:18:15;;;;;;;6.63;1.53;;;12.60;99.90;;;;;;4998395;28;20245;-72
2021/05/04 02:20:40;;;;;;;4.87;1.20;;;12.60;99.90;;;;;;4998556;28;20178;-72
2021/05/04 02:23:06;;;;;;;3.57;1.40;;;12.60;99.90;;;;;;4998446;28;20189;-71
2021/05/04 02:25:31;;;;;;;4.17;1.53;;;12.60;99.70;;;;;;5014864;28;20681;-72
2021/05/04 02:27:57;;;;;;;4.10;1.23;;;12.70;99.20;;;;;;5032093;28;20273;-71
2021/05/04 02:30:23;;;;;;;3.20;1.40;;;12.70;99.10;;;;;;5014796;28;20178;-72
2021/05/04 02:32:48;;;;;;;8.33;1.47;;;12.70;99.90;;;;;;5014723;28;20173;-71
2021/05/04 02:35:14;;;;;;;2.90;1.30;;;12.60;99.90;;;;;;4998283;28;20645;-71
2021/05/04 02:37:40;;;;;;;4.73;2.07;;;12.50;99.90;;;;;;4998112;28;20733;-72
2021/05/04 02:40:06;;;;;;;3.27;1.17;;;12.30;99.90;;;;;;5014653;28;20175;-72
2021/05/04 02:42:31;;;;;;;9.13;1.60;;;12.20;99.90;;;;;;5031997;28;20181;-71
2021/05/04 02:44:57;;;;;;;4.87;1.33;;;12.00;99.90;;;;;;4998084;28;20208;-71
2021/05/04 02:47:22;;;;;;;2.57;1.50;;;11.70;99.90;;;;;;5013679;28;20182;-72
2021/05/04 02:49:48;;;;;;;2.37;0.90;;;11.40;99.90;;;;;;4997937;28;20294;-74
2021/05/04 02:52:13;;;;;;;2.90;1.10;;;11.20;99.90;;;;;;5032169;28;20171;-73
2021/05/04 02:54:39;;;;;;;3.57;1.40;;;11.10;99.90;;;;;;5014141;28;20527;-74
2021/05/04 02:57:05;;;;;;;2.43;1.50;;;11.00;99.90;;;;;;4997906;28;20171;-74
2021/05/04 02:59:30;;;;;;;2.63;1.50;;;10.90;99.90;;;;;;4997943;28;20563;-74
2021/05/04 03:01:56;;;;;;;4.60;1.97;;;10.80;99.90;;;;;;5014413;28;20580;-74
2021/05/04 03:04:21;;;;;;;3.17;1.60;;;10.60;99.90;;;;;;4997676;28;20674;-74
2021/05/04 03:06:47;;;;;;;5.50;1.77;;;10.40;99.90;;;;;;4981550;28;20261;-74
2021/05/04 03:09:12;;;;;;;4.83;1.73;;;10.20;99.90;;;;;;5014135;28;20272;-74
2021/05/04 03:11:38;;;;;;;1.47;1.37;;;10.00;99.90;;;;;;4998043;28;20256;-74
2021/05/04 03:14:03;;;;;;;3.37;1.77;;;9.80;99.90;;;;;;5015216;28;20647;-75
2021/05/04 03:16:29;;;;;;;7.47;2.17;;;9.60;99.90;;;;;;5001937;28;20694;-74
2021/05/04 03:18:54;;;;;;;5.97;2.20;;;9.40;99.90;;;;;;5001610;28;20665;-74
2021/05/04 03:21:20;;;;;;;3.67;1.83;;;9.30;99.90;;;;;;5018272;28;20556;-74
2021/05/04 03:23:48;;;;;;;2.10;1.70;;;9.10;99.90;;;;;;5035713;28;20565;-74
2021/05/04 03:26:14;;;;;;;4.70;2.20;;;9.00;99.90;;;;;;5018354;28;20178;-74
2021/05/04 03:28:40;;;;;;;4.23;2.20;;;8.90;99.90;;;;;;5017838;28;20685;-74
2021/05/04 03:31:06;;;;;;;4.07;2.07;;;8.90;99.90;;;;;;5001708;28;20178;-74
2021/05/04 03:33:31;;;;;;;4.23;2.03;;;8.80;99.90;;;;;;5017999;28;20174;-74
2021/05/04 03:35:57;;;;;;;7.63;2.07;;;8.80;99.90;;;;;;5001528;28;20239;-74
2021/05/04 03:38:22;;;;;;;2.47;1.73;;;8.70;99.90;;;;;;5001337;28;20568;-74
2021/05/04 03:40:48;;;;;;;5.17;2.17;;;8.70;99.90;;;;;;5017815;28;20167;-74
2021/05/04 03:43:13;;;;;;;8.77;2.47;;;8.60;99.90;;;;;;5017798;28;20261;-74
2021/05/04 03:45:39;;;;;;;2.43;1.93;;;8.60;99.90;;;;;;5035267;28;20293;-74
2021/05/04 03:48:05;;;;;;;6.10;2.07;;;8.50;99.90;;;;;;5017490;28;20285;-74
2021/05/04 03:50:31;;;;;;;2.87;2.00;;;8.50;99.90;;;;;;5023477;23;20739;-74
2021/05/04 03:52:59;;;;;;;3.27;1.87;;;8.50;99.90;;;;;;5035261;28;20166;-74
2021/05/04 03:55:24;;;;;;;6.47;1.60;;;8.40;99.90;;;;;;5034242;28;20177;-74
2021/05/04 03:57:50;;;;;;;3.30;1.90;;;8.40;99.90;;;;;;5033769;28;20188;-73
2021/05/04 04:00:16;;;;;;;4.00;1.80;;;8.40;99.90;;;;;;5035134;28;20198;-80
2021/05/04 04:02:42;;;;;;;5.07;1.93;;;8.30;99.90;;;;;;5033804;28;20244;-79
2021/05/04 04:05:08;;;;;;;3.23;1.93;;;8.30;99.90;;;;;;5017503;28;20215;-79
2021/05/04 04:07:34;;;;;;;4.07;1.90;;;8.30;99.90;;;;;;5033641;28;20178;-78
2021/05/04 04:09:59;;;;;;;3.20;1.60;;;8.30;99.90;;;;;;5000988;28;20225;-78
2021/05/04 04:12:25;;;;;;;3.50;1.83;;;8.20;99.90;;;;;;5033774;28;20182;-76
2021/05/04 04:14:53;;;;;;;5.77;1.77;;;8.20;99.90;;;;;;5017124;28;20182;-77
2021/05/04 04:17:20;;;;;;;4.53;1.80;;;8.10;99.90;;;;;;5017416;28;20171;-77
2021/05/04 04:19:45;;;;;;;3.17;2.00;;;8.10;99.90;;;;;;5033692;28;20694;-77
2021/05/04 04:22:11;;;;;;;5.20;1.70;;;8.10;99.90;;;;;;5000687;28;20192;-78
2021/05/04 04:24:36;;;;;;;7.53;2.30;;;8.00;99.90;;;;;;5034516;28;20199;-79
2021/05/04 04:27:02;;;;;;;6.57;1.73;;;8.00;99.90;;;;;;5015660;28;20179;-76
2021/05/04 04:29:27;;;;;;;4.33;2.33;;;8.00;99.90;;;;;;5033283;28;20226;-77
2021/05/04 04:31:53;;;;;;;6.83;2.30;;;8.00;99.90;;;;;;5000515;28;20245;-77
2021/05/04 04:34:19;;;;;;;5.77;2.00;;;8.00;99.90;;;;;;5016999;28;20552;-77
2021/05/04 04:36:44;;;;;;;6.20;2.10;;;7.90;99.90;;;;;;5016975;28;20178;-78
2021/05/04 04:39:10;;;;;;;7.57;2.37;;;8.00;99.90;;;;;;5016553;28;20206;-76
2021/05/04 04:41:35;;;;;;;2.70;1.90;;;8.00;99.90;;;;;;5000424;28;20239;-78
2021/05/04 04:44:05;;;;;;;5.07;2.00;;;8.00;99.90;;;;;;5000113;28;20272;-77
2021/05/04 04:46:40;;;;;;;7.30;2.03;;;8.10;99.90;;;;;;5033240;28;20652;-79
2021/05/04 04:49:16;;;;;;;3.70;2.07;;;8.10;99.90;;;;;;5032865;28;20210;-76
2021/05/04 04:51:42;;;;;;;14.00;2.57;;;8.20;99.90;;;;;;5017048;28;20170;-76
2021/05/04 04:54:08;;;;;;;3.67;1.90;;;8.30;99.90;;;;;;5032945;28;20266;-75
2021/05/04 04:56:34;;;;;;;3.80;2.37;;;8.30;99.90;;;;;;5034189;28;20349;-76
2021/05/04 04:59:00;;;;;;;2.67;1.30;;;8.30;99.90;;;;;;5033822;28;20677;-76
2021/05/04 05:01:25;;;;;;;3.30;1.90;;;8.30;99.90;;;;;;5016525;28;20233;-76
2021/05/04 05:03:51;;;;;;;4.60;2.07;;;8.30;99.90;;;;;;5033827;28;20190;-76
2021/05/04 05:06:16;;;;;;;3.87;1.97;;;8.40;99.90;;;;;;5034048;28;20237;-76
2021/05/04 05:08:42;;;;;;;4.53;1.97;;;8.50;99.90;;;;;;5016057;28;20673;-76
2021/05/04 05:11:07;;;;;;;3.70;1.90;;;8.50;99.90;;;;;;5032562;28;20589;-76
2021/05/04 05:13:33;;;;;;;8.07;2.23;;;8.50;99.90;;;;;;5016151;28;20708;-74
2021/05/04 05:15:58;;;;;;;3.03;2.00;;;8.60;99.90;;;;;;5032412;28;20182;-74
2021/05/04 05:18:24;;;;;;;4.00;2.40;;;8.60;99.90;;;;;;5032346;28;20676;-74
2021/05/04 05:20:49;;;;;;;2.77;2.27;;;8.60;99.90;;;;;;5033654;28;20178;-74
2021/05/04 05:23:16;;;;;;;3.07;2.40;;;8.60;99.90;;;;;;5033647;28;20208;-74
2021/05/04 05:25:42;;;;;;;4.17;2.83;;;8.60;99.90;;;;;;5015978;28;20284;-72
2021/05/04 05:28:07;;;;;;;3.67;2.60;;;8.60;99.90;;;;;;5015770;28;20581;-72
2021/05/04 05:30:33;;;;;;;4.00;2.60;;;8.60;99.90;;;;;;5032183;28;20210;-72
2021/05/04 05:32:59;;;;;;;2.60;2.40;;;8.60;99.90;;;;;;5032255;28;20721;-73
2021/05/04 05:35:24;;;;;;;3.13;1.80;;;8.70;99.90;;;;;;5015713;28;20227;-74
2021/05/04 05:37:50;;;;;;;3.20;2.90;;;8.70;99.90;;;;;;5006523;28;20240;-76
2021/05/04 05:40:16;;;;;;;5.13;2.70;;;8.80;99.90;;;;;;5014489;28;20258;-75
2021/05/04 05:42:41;;;;;;;2.63;2.27;;;8.80;99.90;;;;;;5012207;28;20195;-73
2021/05/04 05:45:07;;;;;;;3.33;2.33;;;8.80;99.90;;;;;;5011775;28;20215;-72
2021/05/04 05:47:33;;;;;;;4.13;1.83;;;8.80;99.90;;;;;;5011961;28;20278;-75
2021/05/04 05:49:58;;;;;;;4.10;2.20;;;8.80;99.90;;;;;;5013162;28;20293;-75
2021/05/04 05:52:24;;;;;;;4.83;2.30;;;8.90;99.90;;;;;;5012100;28;20262;-75
2021/05/04 05:54:50;;;;;;;3.47;2.20;;;8.90;99.90;;;;;;5013315;28;20257;-75
2021/05/04 05:57:15;;;;;;;4.90;1.93;;;8.90;99.90;;;;;;5012959;28;20205;-75
2021/05/04 05:59:41;;;;;;;2.10;1.90;;;8.90;99.90;;;;;;5012050;28;20203;-75
2021/05/04 06:02:06;;;;;;;2.70;2.00;;;8.80;99.90;;;;;;5013124;28;20241;-75
2021/05/04 06:04:32;;;;;;;2.70;1.93;;;8.80;99.90;;;;;;5011911;28;20344;-75
2021/05/04 06:06:58;;;;;;;3.70;2.17;;;8.70;99.90;;;;;;5011750;28;20199;-75
2021/05/04 06:09:24;;;;;;;2.80;2.00;;;8.70;99.90;;;;;;5012928;28;20552;-75
2021/05/04 06:11:49;;;;;;;3.17;1.70;;;8.70;99.90;;;;;;5011706;28;20241;-75
2021/05/04 06:14:16;;;;;;;2.47;2.00;;;8.80;99.90;;;;;;4995317;28;20191;-75
2021/05/04 06:16:42;;;;;;;2.30;1.77;;;8.90;99.90;;;;;;5011688;28;20176;-75
2021/05/04 06:19:07;;;;;;;1.87;1.43;;;9.00;99.90;;;;;;5011471;28;20214;-75
2021/05/04 06:21:33;;;;;;;4.07;1.83;;;9.00;99.90;;;;;;5012864;28;20183;-75
2021/05/04 06:23:58;;;;;;;3.83;1.83;;;9.00;99.90;;;;;;5019664;28;20204;-76
2021/05/04 06:26:24;;;;;;;3.63;2.00;;;8.90;99.90;;;;;;5029620;28;20183;-75
2021/05/04 06:28:50;;;;;;;4.20;2.03;;;8.80;99.90;;;;;;5011373;28;20211;-75
2021/05/04 06:31:16;;;;;;;3.57;2.33;;;8.60;99.90;;;;;;5011615;28;20184;-75
2021/05/04 06:33:42;;;;;;;2.57;2.00;;;8.60;99.90;;;;;;5011346;28;20258;-76
2021/05/04 06:36:09;;;;;;;4.57;2.67;;;8.40;99.90;;;;;;5012984;28;20518;-76
2021/05/04 06:38:35;;;;;;;3.37;2.53;;;8.30;99.90;;;;;;5012331;28;20176;-75
2021/05/04 06:41:01;;;;;;;3.30;3.00;;;8.20;99.90;;;;;;5011354;28;20167;-75
2021/05/04 06:43:27;;;;;;;4.47;2.97;;;8.10;99.90;;;;;;5011084;28;20194;-76
2021/05/04 06:45:53;;;;;;;4.30;3.27;;;8.10;99.90;;;;;;5014608;28;20285;-76
2021/05/04 06:48:18;;;;;;;3.93;3.53;;;8.00;99.90;;;;;;5030184;28;20257;-77
2021/05/04 06:50:44;;;;;;;4.17;3.30;;;8.00;99.90;;;;;;5014119;28;20246;-77
2021/05/04 06:53:09;;;;;;;3.63;3.33;;;8.00;99.90;;;;;;5014176;28;20187;-76
2021/05/04 06:55:35;;;;;;;4.20;3.80;;;8.00;99.90;;;;;;5030992;28;20186;-77
2021/05/04 06:58:00;;;;;;;4.00;3.60;;;8.00;99.90;;;;;;5014120;28;20283;-77
2021/05/04 07:00:26;;;;;;;3.30;3.00;;;8.00;99.90;;;;;;5014196;28;20194;-76
2021/05/04 07:02:51;;;;;;;5.27;3.97;;;8.00;99.90;;;;;;5030706;28;20194;-77
2021/05/04 07:05:18;;;;;;;3.50;3.17;;;8.10;99.90;;;;;;5031836;28;20213;-79
2021/05/04 07:07:44;;;;;;;8.00;3.60;;;8.00;99.90;;;;;;5030454;28;20199;-76
2021/05/04 07:10:10;;;;;;;4.23;3.60;;;8.10;99.90;;;;;;5031787;28;20629;-78
2021/05/04 07:12:35;;;;;;;4.87;3.53;;;8.10;99.90;;;;;;4997890;28;20284;-78
2021/05/04 07:15:01;;;;;;;2.80;2.43;;;8.30;99.90;;;;;;5031762;28;20175;-78
2021/05/04 07:17:27;;;;;;;4.70;2.77;;;8.50;99.90;;;;;;5013695;28;20207;-75
2021/05/04 07:19:54;;;;;;;4.53;2.87;;;8.80;99.90;;;;;;5030589;28;20201;-75
2021/05/04 07:22:23;;;;;;;5.87;3.20;;;8.90;99.90;;;;;;5014491;28;20228;-75
2021/05/04 07:24:49;;;;;;;3.73;2.70;;;9.00;99.90;;;;;;5030491;28;20289;-74
2021/05/04 07:27:14;;;;;;;5.87;4.27;;;9.00;99.90;;;;;;5013951;28;20185;-71
2021/05/04 07:29:40;;;;;;;4.47;2.13;;;9.10;99.90;;;;;;5030525;28;20618;-77
2021/05/04 07:32:06;;;;;;;4.47;2.63;;;9.10;99.90;;;;;;5014178;28;20240;-78
2021/05/04 07:34:32;;;;;;;3.90;2.43;;;9.10;99.90;;;;;;5030455;28;20258;-78
2021/05/04 07:36:57;;;;;;;3.77;2.50;;;9.10;99.90;;;;;;5031666;28;20254;-75
2021/05/04 07:39:23;;;;;;;3.13;2.37;;;9.10;99.90;;;;;;5013842;28;20226;-73
2021/05/04 07:41:48;;;;;;;4.03;2.70;;;9.10;99.90;;;;;;5031597;28;20653;-74
2021/05/04 07:44:14;;;;;;;4.17;2.30;;;9.20;99.90;;;;;;5031561;28;20618;-74
2021/05/04 07:46:39;;;;;;;4.00;2.20;;;9.30;99.90;;;;;;5030275;28;20190;-73
2021/05/04 07:49:11;;;;;;;2.70;1.93;;;9.20;99.90;;;;;;5031453;28;20777;-74
2021/05/04 07:51:38;;;;;;;2.40;1.73;;;9.30;99.90;;;;;;5030371;28;20232;-75
2021/05/04 07:54:04;;;;;;;1.60;1.50;;;9.50;99.90;;;;;;5013946;28;20670;-75
2021/05/04 07:56:29;;;;;;;2.97;1.53;;;9.70;99.90;;;;;;5030624;28;20265;-80
2021/05/04 07:58:55;;;;;;;2.67;1.47;;;9.80;99.90;;;;;;4997372;28;20199;-83
2021/05/04 08:01:20;;;;;;;3.67;1.40;;;9.90;99.90;;;;;;5016785;28;20855;-78
2021/05/04 08:03:46;;;;;;;3.30;1.27;;;10.10;99.90;;;;;;5034125;28;20178;-80
2021/05/04 08:06:11;;;;;;;1.40;1.20;;;10.10;99.90;;;;;;5017397;28;20179;-81
2021/05/04 08:08:37;;;;;;;1.80;1.50;;;10.20;99.90;;;;;;5017088;28;20193;-77
2021/05/04 08:11:02;;;;;;;2.77;1.70;;;10.20;99.90;;;;;;5017302;28;20265;-76
2021/05/04 08:13:28;;;;;;;5.40;1.43;;;10.20;99.90;;;;;;5000908;28;20210;-78
2021/05/04 08:15:54;;;;;;;3.87;1.80;;;10.20;99.90;;;;;;5032919;28;20189;-80
2021/05/04 08:18:19;;;;;;;1.90;1.70;;;10.20;99.90;;;;;;5033500;28;20179;-79
2021/05/04 08:20:52;;;;;;;1.77;1.67;;;10.20;99.90;;;;;;5017020;28;20209;-76
2021/05/04 08:23:18;;;;;;;3.03;1.67;;;10.10;99.90;;;;;;5033571;28;20168;-77
2021/05/04 08:25:44;;;;;;;2.97;1.57;;;10.10;99.90;;;;;;5017243;28;20218;-77
2021/05/04 08:28:09;;;;;;;1.80;1.60;;;10.10;99.90;;;;;;5016892;28;20639;-77
2021/05/04 08:30:35;;;;;;;2.07;1.50;;;10.20;99.90;;;;;;5017057;28;20705;-77
2021/05/04 08:33:00;;;;;;;3.00;1.40;;;10.20;99.90;;;;;;5016780;28;20179;-77
2021/05/04 08:38:48;;;;;;;1.83;1.30;;;10.30;99.90;;;;;;5033925;28;20212;-80
2021/05/04 08:41:14;;;;;;;4.03;1.20;;;10.40;99.90;;;;;;5016816;28;20594;-78
2021/05/04 08:43:40;;;;;;;2.27;1.20;;;10.40;99.90;;;;;;5033127;28;20190;-78
2021/05/04 08:46:05;;;;;;;2.40;1.10;;;10.50;99.90;;;;;;5000397;28;20213;-75
2021/05/04 08:48:31;;;;;;;2.90;1.50;;;10.70;99.90;;;;;;5016322;28;20290;-77
2021/05/04 08:50:58;;;;;;;2.17;1.03;;;10.80;99.90;;;;;;5033007;28;20274;-79
2021/05/04 08:53:23;;;;;;;2.50;1.10;;;10.80;99.90;;;;;;5016674;28;20167;-79
2021/05/04 08:55:49;;;;;;;2.47;1.40;;;10.90;99.90;;;;;;5000259;28;20194;-78
2021/05/04 08:58:14;;;;;;;4.40;1.30;;;11.00;99.90;;;;;;5000007;28;20183;-78
2021/05/04 09:00:40;;;;;;;1.57;1.10;;;11.20;99.90;;;;;;5000100;28;20207;-77
2021/05/04 09:03:13;;;;;;;1.27;1.17;;;11.20;99.90;;;;;;5033139;28;20188;-77
2021/05/04 09:05:41;;;;;;;2.43;1.17;;;11.10;99.90;;;;;;5017466;28;20199;-78
2021/05/04 09:08:10;;;;;;;2.23;1.20;;;11.10;99.90;;;;;;5039693;28;20244;-76
2021/05/04 09:10:44;;;;;;;4.07;1.20;;;11.10;99.90;;;;;;5021496;28;20577;-82
2021/05/04 09:13:27;;;;;;;1.97;1.50;;;11.10;99.90;;;;;;5021595;28;20160;-78
2021/05/04 09:21:09;;;;;;;1.97;1.47;;;10.20;99.90;;;;;;5035405;28;20205;-80
2021/05/04 09:23:36;;;;;;;3.77;2.40;;;9.60;99.90;;;;;;5018097;28;20183;-80
2021/05/04 09:26:02;;;;;;;3.70;2.87;;;9.40;99.90;;;;;;5035749;28;20243;-80
2021/05/04 09:28:28;;;;;;;3.97;3.40;;;9.20;99.90;;;;;;5000782;28;20234;-78
2021/05/04 09:30:58;;;;;;;3.10;2.40;;;9.10;99.90;;;;;;5016821;28;20676;-82
2021/05/04 09:33:24;;;;;;;2.80;2.60;;;9.00;99.90;;;;;;5000374;28;20178;-74
2021/05/04 09:35:49;;;;;;;4.03;3.10;;;8.90;99.90;;;;;;5015837;28;20229;-77
2021/05/04 09:38:19;;;;;;;4.63;4.03;;;8.80;99.90;;;;;;5031904;28;20198;-75
2021/05/04 09:40:45;;;;;;;4.53;4.13;;;8.90;99.90;;;;;;5015632;28;20222;-73
2021/05/04 09:43:15;;;;;;;5.07;4.33;;;9.00;99.90;;;;;;5031920;28;20181;-73
2021/05/04 09:45:43;;;;;;;4.80;4.20;;;8.90;99.90;;;;;;5031944;28;20210;-73
2021/05/04 09:48:09;;;;;;;5.53;4.80;;;9.00;99.90;;;;;;5015622;28;20313;-73
2021/05/04 09:50:45;;;;;;;6.33;4.00;;;9.20;99.90;;;;;;5031685;28;20211;-76
2021/05/04 09:53:10;;;;;;;6.63;4.97;;;9.20;99.90;;;;;;5031835;28;20225;-76
2021/05/04 09:55:53;;;;;;;3.67;3.37;;;9.60;99.90;;;;;;5031876;28;20179;-72
2021/05/04 09:58:32;;;;;;;9.37;6.80;;;10.20;99.90;;;;;;5031019;23;20227;-77
2021/05/04 10:00:58;;;;;;;6.57;5.40;;;10.80;99.90;;;;;;5033997;28;20200;-77
2021/05/04 10:03:24;;;;;;;7.50;4.87;;;11.20;99.90;;;;;;5016799;28;20183;-78
2021/05/04 10:05:51;;;;;;;5.33;4.83;;;11.60;99.90;;;;;;5016551;28;20203;-80
2021/05/04 10:08:17;;;;;;;5.30;4.53;;;11.60;99.90;;;;;;5000643;28;20610;-78
2021/05/04 10:10:43;;;;;;;5.23;4.30;;;11.50;99.90;;;;;;5017425;28;20172;-78
2021/05/04 10:13:09;;;;;;;7.50;5.17;;;11.30;99.90;;;;;;5001189;28;20186;-79
2021/05/04 10:15:35;;;;;;;6.93;4.13;;;11.30;99.90;;;;;;4999454;28;20184;-78
2021/05/04 10:18:01;;;;;;;4.17;3.50;;;11.30;99.90;;;;;;5031423;28;20197;-77
2021/05/04 10:20:26;;;;;;;4.83;3.00;;;11.20;99.90;;;;;;5014778;28;20182;-78
2021/05/04 10:22:52;;;;;;;6.97;2.97;;;11.30;99.90;;;;;;4998321;28;20187;-77
2021/05/04 10:25:19;;;;;;;4.07;2.53;;;11.60;99.90;;;;;;5015033;28;20587;-77
2021/05/04 10:27:45;;;;;;;7.20;2.77;;;11.70;99.90;;;;;;4998466;28;20279;-78
2021/05/04 10:30:11;;;;;;;3.77;1.90;;;11.60;99.90;;;;;;5015773;28;20615;-77
2021/05/04 10:32:53;;;;;;;2.30;1.90;;;11.50;99.90;;;;;;5015594;28;20188;-77
2021/05/04 10:35:41;;;;;;;5.83;2.30;;;11.40;99.90;;;;;;5032823;28;20173;-78
2021/05/04 10:38:16;;;;;;;6.63;2.63;;;11.20;99.90;;;;;;5031874;28;20245;-77
2021/05/04 10:40:46;;;;;;;10.17;2.87;;;10.80;99.90;;;;;;4999414;28;20557;-76
2021/05/04 10:43:21;;;;;;;6.10;2.77;;;10.40;99.90;;;;;;5030801;28;20190;-77
2021/05/04 10:45:50;;;;;;;5.30;2.30;;;10.10;99.90;;;;;;5030834;28;20210;-77
2021/05/04 10:48:16;;;;;;;3.83;1.80;;;10.00;99.90;;;;;;4997506;28;20203;-77
2021/05/04 10:50:53;;;;;;;6.40;2.17;;;10.00;99.90;;;;;;5014224;28;20665;-77
2021/05/04 10:53:19;;;;;;;3.67;1.87;;;10.20;99.90;;;;;;4990355;28;20221;-77
2021/05/04 10:55:52;;;;;;;5.20;1.70;;;10.60;99.90;;;;;;5031942;28;20274;-78
2021/05/04 10:58:24;;;;;;;2.80;1.60;;;10.90;99.90;;;;;;5035421;28;20219;-77
2021/05/04 11:00:52;;;;;;;3.33;1.40;;;11.20;99.90;;;;;;5001714;28;20205;-77
2021/05/04 11:03:30;;;;;;;5.13;1.50;;;11.40;99.90;;;;;;5036325;28;20646;-78
2021/05/04 11:05:59;;;;;;;1.30;0.87;;;11.70;99.90;;;;;;5032804;28;20210;-78
2021/05/04 11:08:25;;;;;;;5.57;1.70;;;12.00;99.90;;;;;;5015839;28;20198;-78
2021/05/04 11:11:29;;;;;;;5.73;1.50;;;12.10;99.90;;;;;;4999048;28;20178;-77
2021/05/04 11:13:59;;;;;;;5.43;1.90;;;12.40;99.90;;;;;;5021391;28;20186;-77
2021/05/04 11:16:31;;;;;;;9.33;1.53;;;12.60;99.90;;;;;;5000397;28;20166;-77
2021/05/04 11:19:08;;;;;;;3.03;1.30;;;12.70;99.90;;;;;;5013294;28;20224;-77
2021/05/04 11:21:46;;;;;;;6.47;1.63;;;12.60;99.90;;;;;;5015194;28;20194;-77
2021/05/04 11:24:21;;;;;;;6.53;1.53;;;12.70;99.90;;;;;;5033232;28;20242;-78
2021/05/04 11:26:52;;;;;;;11.60;1.50;;;12.70;99.90;;;;;;5000205;28;20258;-78
2021/05/04 11:29:18;;;;;;;7.10;1.70;;;12.60;99.90;;;;;;5030878;28;20194;-77
2021/05/04 11:31:46;;;;;;;6.67;1.97;;;12.40;99.90;;;;;;5014841;28;20186;-76
2021/05/04 11:34:40;;;;;;;8.07;1.80;;;12.20;99.90;;;;;;4999289;28;20238;-77
2021/05/04 11:37:12;;;;;;;3.43;1.73;;;11.90;99.90;;;;;;5035329;28;20225;-77
2021/05/04 11:39:49;;;;;;;3.83;1.60;;;11.50;99.90;;;;;;5035942;28;20211;-78
2021/05/04 11:42:14;;;;;;;3.20;1.60;;;11.50;99.90;;;;;;5020755;28;20160;-77
2021/05/04 11:44:40;;;;;;;3.47;1.67;;;11.70;99.90;;;;;;5019812;28;20600;-77
2021/05/04 11:47:25;;;;;;;7.30;2.00;;;12.00;99.90;;;;;;5002677;28;20523;-78
2021/05/04 11:49:51;;;;;;;6.67;2.10;;;12.20;99.90;;;;;;5019354;28;20178;-77
2021/05/04 11:52:17;;;;;;;8.03;1.80;;;12.50;99.90;;;;;;5019076;28;20178;-77
2021/05/04 11:54:46;;;;;;;3.20;1.60;;;12.70;99.90;;;;;;5002720;28;20212;-77
2021/05/04 11:57:12;;;;;;;3.57;1.40;;;13.00;99.90;;;;;;5018688;28;20180;-77
2021/05/04 11:59:37;;;;;;;5.60;1.77;;;12.80;99.90;;;;;;5017969;28;20278;-75
2021/05/04 12:02:03;;;;;;;4.87;1.67;;;12.90;99.90;;;;;;5001941;28;20185;-77
2021/05/04 12:04:48;;;;;;;3.67;1.40;;;12.80;99.90;;;;;;5001723;28;20220;-77
2021/05/04 12:07:30;;;;;;;4.47;1.80;;;12.60;99.90;;;;;;5009863;28;20189;-76
2021/05/04 12:09:56;;;;;;;3.17;1.50;;;12.40;99.90;;;;;;5004607;28;20272;-78
2021/05/04 12:12:22;;;;;;;5.97;2.10;;;12.10;99.90;;;;;;5015072;28;20228;-77
2021/05/04 12:14:58;;;;;;;4.80;1.80;;;12.20;99.90;;;;;;5007400;28;20194;-76
2021/05/04 12:17:27;;;;;;;3.30;1.70;;;12.30;99.90;;;;;;4998983;28;20654;-77
2021/05/04 12:20:14;;;;;;;6.77;2.00;;;12.30;99.90;;;;;;4998197;28;20220;-76
2021/05/04 12:22:46;;;;;;;7.77;1.93;;;12.30;99.90;;;;;;4997655;28;20273;-76
2021/05/04 12:25:12;;;;;;;5.30;1.90;;;12.20;99.90;;;;;;5015325;28;20218;-76
2021/05/04 12:27:38;;;;;;;5.50;1.90;;;12.10;99.90;;;;;;4997545;28;20276;-76
2021/05/04 12:30:07;;;;;;;3.47;1.40;;;12.00;99.90;;;;;;4998028;28;20228;-76
2021/05/04 12:32:32;;;;;;;4.00;1.70;;;11.90;99.90;;;;;;4997895;28;20182;-76
2021/05/04 12:35:42;;;;;;;4.23;1.30;;;11.60;99.90;;;;;;4997471;28;20218;-76
2021/05/04 12:38:21;;;;;;;2.87;1.20;;;11.10;99.90;;;;;;5014963;28;20669;-76
2021/05/04 12:40:53;;;;;;;3.50;1.57;;;10.60;99.90;;;;;;5013921;28;20189;-76
2021/05/04 12:43:30;;;;;;;3.67;2.17;;;10.00;99.90;;;;;;5024327;28;20542;-78
2021/05/04 12:46:24;;;;;;;4.87;2.60;;;9.70;99.90;;;;;;5015002;28;20674;-77
2021/05/04 12:48:53;;;;;;;5.10;2.80;;;9.50;99.90;;;;;;5026225;28;20265;-77
2021/05/04 12:51:24;;;;;;;5.40;3.27;;;9.40;99.90;;;;;;5000236;28;20179;-78
2021/05/04 12:53:50;;;;;;;4.87;2.60;;;9.60;99.90;;;;;;5019885;28;20187;-79
2021/05/04 12:56:17;;;;;;;7.47;3.53;;;9.80;99.90;;;;;;5005603;28;20175;-76
2021/05/04 12:59:06;;;;;;;9.80;4.40;;;9.90;99.90;;;;;;5019411;28;20239;-77
2021/05/04 13:01:43;;;;;;;5.40;2.83;;;10.10;99.90;;;;;;4982477;28;20206;-78
2021/05/04 13:04:23;;;;;;;6.17;3.40;;;10.50;99.90;;;;;;5021761;28;20206;-78